sensor_id;sensor_type;location;lat;lon;timestamp;P1;durP1;ratioP1;P2;durP2;ratioP2
64498;SDS011;51087;55.718;21.122;2022-12-24T00:00:29;5.60;;;2.33;;
64498;SDS011;51087;55.718;21.122;2022-12-24T00:02:54;4.80;;;2.10;;
64498;SDS011;51087;55.718;21.122;2022-12-24T00:05:20;4.95;;;2.17;;
64498;SDS011;51087;55.718;21.122;2022-12-24T00:07:45;7.15;;;2.28;;
64498;SDS011;51087;55.718;21.122;2022-12-24T00:10:11;4.97;;;2.05;;
64498;SDS011;51087;55.718;21.122;2022-12-24T00:12:36;7.28;;;2.38;;
64498;SDS011;51087;55.718;21.122;2022-12-24T00:15:02;7.47;;;2.80;;
64498;SDS011;51087;55.718;21.122;2022-12-24T00:17:28;8.77;;;2.50;;
64498;SDS011;51087;55.718;21.122;2022-12-24T00:19:54;6.50;;;2.20;;
64498;SDS011;51087;55.718;21.122;2022-12-24T00:22:19;6.28;;;1.90;;
64498;SDS011;51087;55.718;21.122;2022-12-24T00:24:45;9.93;;;2.15;;
64498;SDS011;51087;55.718;21.122;2022-12-24T00:27:10;5.10;;;1.98;;
64498;SDS011;51087;55.718;21.122;2022-12-24T00:29:35;3.45;;;1.50;;
64498;SDS011;51087;55.718;21.122;2022-12-24T00:32:01;4.30;;;1.27;;
64498;SDS011;51087;55.718;21.122;2022-12-24T00:34:26;4.10;;;1.58;;
64498;SDS011;51087;55.718;21.122;2022-12-24T00:36:52;4.13;;;1.17;;
64498;SDS011;51087;55.718;21.122;2022-12-24T00:39:17;2.53;;;0.98;;
64498;SDS011;51087;55.718;21.122;2022-12-24T00:41:43;4.75;;;1.25;;
64498;SDS011;51087;55.718;21.122;2022-12-24T00:44:08;2.30;;;1.27;;
64498;SDS011;51087;55.718;21.122;2022-12-24T00:46:35;2.83;;;1.17;;
64498;SDS011;51087;55.718;21.122;2022-12-24T00:49:02;4.57;;;1.20;;
64498;SDS011;51087;55.718;21.122;2022-12-24T00:51:29;2.63;;;1.20;;
64498;SDS011;51087;55.718;21.122;2022-12-24T00:53:54;3.38;;;1.23;;
64498;SDS011;51087;55.718;21.122;2022-12-24T00:56:20;3.58;;;1.10;;
64498;SDS011;51087;55.718;21.122;2022-12-24T00:58:46;6.70;;;1.38;;
64498;SDS011;51087;55.718;21.122;2022-12-24T01:01:12;4.68;;;1.50;;
64498;SDS011;51087;55.718;21.122;2022-12-24T01:03:37;3.45;;;1.50;;
64498;SDS011;51087;55.718;21.122;2022-12-24T01:06:16;4.38;;;1.73;;
64498;SDS011;51087;55.718;21.122;2022-12-24T01:08:43;4.25;;;1.58;;
64498;SDS011;51087;55.718;21.122;2022-12-24T01:11:09;4.95;;;1.50;;
64498;SDS011;51087;55.718;21.122;2022-12-24T01:13:36;3.85;;;1.40;;
64498;SDS011;51087;55.718;21.122;2022-12-24T01:16:02;4.63;;;1.40;;
64498;SDS011;51087;55.718;21.122;2022-12-24T01:18:28;4.30;;;1.42;;
64498;SDS011;51087;55.718;21.122;2022-12-24T01:20:57;3.55;;;1.30;;
64498;SDS011;51087;55.718;21.122;2022-12-24T01:23:24;2.88;;;1.42;;
64498;SDS011;51087;55.718;21.122;2022-12-24T01:25:50;2.17;;;1.08;;
64498;SDS011;51087;55.718;21.122;2022-12-24T01:28:16;2.88;;;1.30;;
64498;SDS011;51087;55.718;21.122;2022-12-24T01:30:41;2.35;;;1.20;;
64498;SDS011;51087;55.718;21.122;2022-12-24T01:33:07;4.43;;;1.10;;
64498;SDS011;51087;55.718;21.122;2022-12-24T01:35:32;2.42;;;1.00;;
64498;SDS011;51087;55.718;21.122;2022-12-24T01:37:58;2.17;;;0.98;;
64498;SDS011;51087;55.718;21.122;2022-12-24T01:40:24;2.55;;;1.25;;
64498;SDS011;51087;55.718;21.122;2022-12-24T01:43:19;1.88;;;0.88;;
64498;SDS011;51087;55.718;21.122;2022-12-24T01:48:19;2.88;;;1.20;;
64498;SDS011;51087;55.718;21.122;2022-12-24T01:51:18;4.30;;;1.13;;
64498;SDS011;51087;55.718;21.122;2022-12-24T01:53:44;3.83;;;1.58;;
64498;SDS011;51087;55.718;21.122;2022-12-24T01:56:13;16.75;;;4.22;;
64498;SDS011;51087;55.718;21.122;2022-12-24T01:58:39;12.20;;;4.35;;
64498;SDS011;51087;55.718;21.122;2022-12-24T02:01:10;15.13;;;4.25;;
64498;SDS011;51087;55.718;21.122;2022-12-24T02:03:35;7.78;;;3.00;;
64498;SDS011;51087;55.718;21.122;2022-12-24T02:06:01;7.35;;;2.45;;
64498;SDS011;51087;55.718;21.122;2022-12-24T02:08:26;4.00;;;1.90;;
64498;SDS011;51087;55.718;21.122;2022-12-24T02:11:08;5.18;;;1.73;;
64498;SDS011;51087;55.718;21.122;2022-12-24T02:13:39;5.88;;;1.80;;
64498;SDS011;51087;55.718;21.122;2022-12-24T02:32:31;3.33;;;1.67;;
64498;SDS011;51087;55.718;21.122;2022-12-24T02:38:28;3.63;;;1.67;;
64498;SDS011;51087;55.718;21.122;2022-12-24T02:41:17;2.88;;;1.60;;
64498;SDS011;51087;55.718;21.122;2022-12-24T02:43:47;3.15;;;1.58;;
64498;SDS011;51087;55.718;21.122;2022-12-24T02:46:19;3.30;;;1.40;;
64498;SDS011;51087;55.718;21.122;2022-12-24T02:48:49;3.67;;;1.60;;
64498;SDS011;51087;55.718;21.122;2022-12-24T02:51:15;4.13;;;1.80;;
64498;SDS011;51087;55.718;21.122;2022-12-24T02:53:41;2.53;;;1.77;;
64498;SDS011;51087;55.718;21.122;2022-12-24T03:07:06;4.57;;;2.10;;
64498;SDS011;51087;55.718;21.122;2022-12-24T03:09:47;6.32;;;2.70;;
64498;SDS011;51087;55.718;21.122;2022-12-24T03:12:23;5.03;;;2.53;;
64498;SDS011;51087;55.718;21.122;2022-12-24T03:15:03;8.43;;;2.20;;
64498;SDS011;51087;55.718;21.122;2022-12-24T03:17:30;4.50;;;2.60;;
64498;SDS011;51087;55.718;21.122;2022-12-24T03:20:00;5.78;;;2.70;;
64498;SDS011;51087;55.718;21.122;2022-12-24T03:22:26;6.70;;;2.58;;
64498;SDS011;51087;55.718;21.122;2022-12-24T03:24:52;6.22;;;2.90;;
64498;SDS011;51087;55.718;21.122;2022-12-24T03:27:17;9.93;;;2.80;;
64498;SDS011;51087;55.718;21.122;2022-12-24T03:29:43;5.88;;;2.72;;
64498;SDS011;51087;55.718;21.122;2022-12-24T03:32:09;7.75;;;2.85;;
64498;SDS011;51087;55.718;21.122;2022-12-24T03:34:35;6.32;;;2.80;;
64498;SDS011;51087;55.718;21.122;2022-12-24T03:37:00;6.20;;;2.85;;
64498;SDS011;51087;55.718;21.122;2022-12-24T03:39:26;6.35;;;2.75;;
64498;SDS011;51087;55.718;21.122;2022-12-24T03:41:51;9.85;;;2.72;;
64498;SDS011;51087;55.718;21.122;2022-12-24T03:44:16;6.03;;;2.75;;
64498;SDS011;51087;55.718;21.122;2022-12-24T03:46:42;6.70;;;2.75;;
64498;SDS011;51087;55.718;21.122;2022-12-24T03:49:07;3.92;;;2.30;;
64498;SDS011;51087;55.718;21.122;2022-12-24T03:51:33;4.97;;;2.63;;
64498;SDS011;51087;55.718;21.122;2022-12-24T03:53:58;6.00;;;2.60;;
64498;SDS011;51087;55.718;21.122;2022-12-24T03:56:25;7.90;;;2.78;;
64498;SDS011;51087;55.718;21.122;2022-12-24T03:58:50;7.65;;;2.80;;
64498;SDS011;51087;55.718;21.122;2022-12-24T04:01:16;5.75;;;2.60;;
64498;SDS011;51087;55.718;21.122;2022-12-24T04:03:42;4.20;;;2.35;;
64498;SDS011;51087;55.718;21.122;2022-12-24T04:06:08;4.63;;;2.25;;
64498;SDS011;51087;55.718;21.122;2022-12-24T04:08:36;5.90;;;2.40;;
64498;SDS011;51087;55.718;21.122;2022-12-24T04:11:05;8.02;;;2.40;;
64498;SDS011;51087;55.718;21.122;2022-12-24T04:13:32;5.00;;;2.60;;
64498;SDS011;51087;55.718;21.122;2022-12-24T04:15:59;5.80;;;2.00;;
64498;SDS011;51087;55.718;21.122;2022-12-24T04:18:26;4.35;;;1.90;;
64498;SDS011;51087;55.718;21.122;2022-12-24T04:20:52;5.50;;;2.38;;
64498;SDS011;51087;55.718;21.122;2022-12-24T04:23:18;4.25;;;2.15;;
64498;SDS011;51087;55.718;21.122;2022-12-24T04:25:43;6.40;;;1.90;;
64498;SDS011;51087;55.718;21.122;2022-12-24T04:28:08;3.33;;;1.88;;
64498;SDS011;51087;55.718;21.122;2022-12-24T04:30:34;5.50;;;2.35;;
64498;SDS011;51087;55.718;21.122;2022-12-24T04:32:59;5.47;;;2.10;;
64498;SDS011;51087;55.718;21.122;2022-12-24T04:35:25;4.80;;;2.25;;
64498;SDS011;51087;55.718;21.122;2022-12-24T04:37:50;5.00;;;2.30;;
64498;SDS011;51087;55.718;21.122;2022-12-24T04:40:15;6.32;;;2.00;;
64498;SDS011;51087;55.718;21.122;2022-12-24T04:42:41;7.90;;;2.55;;
64498;SDS011;51087;55.718;21.122;2022-12-24T04:45:06;6.68;;;2.38;;
64498;SDS011;51087;55.718;21.122;2022-12-24T04:47:32;5.72;;;2.70;;
64498;SDS011;51087;55.718;21.122;2022-12-24T04:49:58;6.90;;;2.88;;
64498;SDS011;51087;55.718;21.122;2022-12-24T04:52:25;6.55;;;2.97;;
64498;SDS011;51087;55.718;21.122;2022-12-24T04:54:51;5.38;;;2.60;;
64498;SDS011;51087;55.718;21.122;2022-12-24T04:57:16;7.13;;;2.90;;
64498;SDS011;51087;55.718;21.122;2022-12-24T04:59:42;6.55;;;2.90;;
64498;SDS011;51087;55.718;21.122;2022-12-24T05:02:07;8.02;;;3.55;;
64498;SDS011;51087;55.718;21.122;2022-12-24T05:04:32;7.63;;;3.03;;
64498;SDS011;51087;55.718;21.122;2022-12-24T05:06:58;6.60;;;3.22;;
64498;SDS011;51087;55.718;21.122;2022-12-24T05:09:23;8.65;;;3.53;;
64498;SDS011;51087;55.718;21.122;2022-12-24T05:11:49;10.45;;;3.55;;
64498;SDS011;51087;55.718;21.122;2022-12-24T05:14:14;8.20;;;3.65;;
64498;SDS011;51087;55.718;21.122;2022-12-24T05:16:39;9.18;;;3.38;;
64498;SDS011;51087;55.718;21.122;2022-12-24T05:19:05;9.15;;;3.72;;
64498;SDS011;51087;55.718;21.122;2022-12-24T05:21:30;10.93;;;4.05;;
64498;SDS011;51087;55.718;21.122;2022-12-24T05:23:56;10.13;;;3.60;;
64498;SDS011;51087;55.718;21.122;2022-12-24T05:26:41;7.72;;;3.38;;
64498;SDS011;51087;55.718;21.122;2022-12-24T05:29:18;14.00;;;4.03;;
64498;SDS011;51087;55.718;21.122;2022-12-24T05:31:44;18.20;;;4.43;;
64498;SDS011;51087;55.718;21.122;2022-12-24T05:34:10;11.95;;;4.68;;
64498;SDS011;51087;55.718;21.122;2022-12-24T05:36:37;10.35;;;3.88;;
64498;SDS011;51087;55.718;21.122;2022-12-24T05:39:03;8.90;;;3.97;;
64498;SDS011;51087;55.718;21.122;2022-12-24T05:41:29;14.80;;;4.70;;
64498;SDS011;51087;55.718;21.122;2022-12-24T05:43:54;11.85;;;4.57;;
64498;SDS011;51087;55.718;21.122;2022-12-24T05:46:20;13.43;;;4.72;;
64498;SDS011;51087;55.718;21.122;2022-12-24T05:48:47;15.70;;;5.78;;
64498;SDS011;51087;55.718;21.122;2022-12-24T05:51:13;19.67;;;6.30;;
64498;SDS011;51087;55.718;21.122;2022-12-24T05:53:42;18.15;;;6.97;;
64498;SDS011;51087;55.718;21.122;2022-12-24T05:56:12;17.75;;;6.38;;
64498;SDS011;51087;55.718;21.122;2022-12-24T05:58:43;18.08;;;6.45;;
64498;SDS011;51087;55.718;21.122;2022-12-24T06:01:09;17.27;;;7.15;;
64498;SDS011;51087;55.718;21.122;2022-12-24T06:03:35;14.02;;;6.28;;
64498;SDS011;51087;55.718;21.122;2022-12-24T06:06:02;18.80;;;6.68;;
64498;SDS011;51087;55.718;21.122;2022-12-24T06:08:31;17.05;;;6.13;;
64498;SDS011;51087;55.718;21.122;2022-12-24T06:10:58;17.15;;;6.55;;
64498;SDS011;51087;55.718;21.122;2022-12-24T06:13:24;16.58;;;6.25;;
64498;SDS011;51087;55.718;21.122;2022-12-24T06:15:53;19.30;;;6.63;;
64498;SDS011;51087;55.718;21.122;2022-12-24T06:18:19;18.52;;;6.63;;
64498;SDS011;51087;55.718;21.122;2022-12-24T06:20:44;15.68;;;6.55;;
64498;SDS011;51087;55.718;21.122;2022-12-24T06:23:09;18.83;;;7.03;;
64498;SDS011;51087;55.718;21.122;2022-12-24T06:25:35;14.68;;;6.28;;
64498;SDS011;51087;55.718;21.122;2022-12-24T06:28:00;18.00;;;7.15;;
64498;SDS011;51087;55.718;21.122;2022-12-24T06:30:26;14.55;;;7.03;;
64498;SDS011;51087;55.718;21.122;2022-12-24T06:32:51;18.23;;;6.93;;
64498;SDS011;51087;55.718;21.122;2022-12-24T06:35:16;17.65;;;6.93;;
64498;SDS011;51087;55.718;21.122;2022-12-24T06:37:42;16.50;;;6.75;;
64498;SDS011;51087;55.718;21.122;2022-12-24T06:40:07;16.92;;;6.93;;
64498;SDS011;51087;55.718;21.122;2022-12-24T06:42:33;17.02;;;6.70;;
64498;SDS011;51087;55.718;21.122;2022-12-24T06:44:59;16.08;;;6.60;;
64498;SDS011;51087;55.718;21.122;2022-12-24T06:47:24;20.92;;;8.30;;
64498;SDS011;51087;55.718;21.122;2022-12-24T06:49:49;21.75;;;7.57;;
64498;SDS011;51087;55.718;21.122;2022-12-24T06:52:15;25.10;;;8.48;;
64498;SDS011;51087;55.718;21.122;2022-12-24T06:54:40;25.15;;;9.00;;
64498;SDS011;51087;55.718;21.122;2022-12-24T06:57:06;20.85;;;8.43;;
64498;SDS011;51087;55.718;21.122;2022-12-24T06:59:31;22.55;;;8.48;;
64498;SDS011;51087;55.718;21.122;2022-12-24T07:01:56;30.20;;;8.63;;
64498;SDS011;51087;55.718;21.122;2022-12-24T07:04:22;24.73;;;8.80;;
64498;SDS011;51087;55.718;21.122;2022-12-24T07:06:47;27.00;;;10.13;;
64498;SDS011;51087;55.718;21.122;2022-12-24T07:09:13;24.33;;;9.45;;
64498;SDS011;51087;55.718;21.122;2022-12-24T07:11:38;27.65;;;9.95;;
64498;SDS011;51087;55.718;21.122;2022-12-24T07:14:04;25.88;;;10.38;;
64498;SDS011;51087;55.718;21.122;2022-12-24T07:16:29;31.23;;;10.90;;
64498;SDS011;51087;55.718;21.122;2022-12-24T07:18:55;29.20;;;11.88;;
64498;SDS011;51087;55.718;21.122;2022-12-24T07:21:20;29.25;;;12.90;;
64498;SDS011;51087;55.718;21.122;2022-12-24T07:23:46;29.88;;;12.60;;
64498;SDS011;51087;55.718;21.122;2022-12-24T07:26:11;29.02;;;12.40;;
64498;SDS011;51087;55.718;21.122;2022-12-24T07:28:36;34.88;;;14.60;;
64498;SDS011;51087;55.718;21.122;2022-12-24T07:31:02;34.10;;;14.70;;
64498;SDS011;51087;55.718;21.122;2022-12-24T07:33:28;37.17;;;16.35;;
64498;SDS011;51087;55.718;21.122;2022-12-24T07:36:03;33.70;;;15.88;;
64498;SDS011;51087;55.718;21.122;2022-12-24T07:38:30;34.53;;;15.60;;
64498;SDS011;51087;55.718;21.122;2022-12-24T07:40:57;45.03;;;18.45;;
64498;SDS011;51087;55.718;21.122;2022-12-24T07:43:22;38.35;;;18.73;;
64498;SDS011;51087;55.718;21.122;2022-12-24T07:45:48;48.10;;;18.15;;
64498;SDS011;51087;55.718;21.122;2022-12-24T07:48:14;43.63;;;19.05;;
64498;SDS011;51087;55.718;21.122;2022-12-24T07:50:40;52.75;;;19.65;;
64498;SDS011;51087;55.718;21.122;2022-12-24T07:53:05;41.97;;;18.95;;
64498;SDS011;51087;55.718;21.122;2022-12-24T07:55:31;52.55;;;19.42;;
64498;SDS011;51087;55.718;21.122;2022-12-24T07:57:56;54.42;;;20.70;;
64498;SDS011;51087;55.718;21.122;2022-12-24T08:00:23;55.42;;;20.27;;
64498;SDS011;51087;55.718;21.122;2022-12-24T08:02:48;58.20;;;21.60;;
64498;SDS011;51087;55.718;21.122;2022-12-24T08:05:14;48.55;;;20.25;;
64498;SDS011;51087;55.718;21.122;2022-12-24T08:07:39;62.00;;;22.75;;
64498;SDS011;51087;55.718;21.122;2022-12-24T08:10:06;70.53;;;25.25;;
64498;SDS011;51087;55.718;21.122;2022-12-24T08:12:32;56.50;;;22.92;;
64498;SDS011;51087;55.718;21.122;2022-12-24T08:14:57;66.38;;;22.15;;
64498;SDS011;51087;55.718;21.122;2022-12-24T08:17:23;80.95;;;27.95;;
64498;SDS011;51087;55.718;21.122;2022-12-24T08:19:48;71.65;;;28.45;;
64498;SDS011;51087;55.718;21.122;2022-12-24T08:22:14;72.85;;;26.83;;
64498;SDS011;51087;55.718;21.122;2022-12-24T08:24:39;65.57;;;24.92;;
64498;SDS011;51087;55.718;21.122;2022-12-24T08:27:05;68.05;;;26.05;;
64498;SDS011;51087;55.718;21.122;2022-12-24T08:29:30;69.18;;;26.15;;
64498;SDS011;51087;55.718;21.122;2022-12-24T08:31:55;55.28;;;23.67;;
64498;SDS011;51087;55.718;21.122;2022-12-24T08:34:21;60.80;;;22.60;;
64498;SDS011;51087;55.718;21.122;2022-12-24T08:36:46;61.05;;;22.30;;
64498;SDS011;51087;55.718;21.122;2022-12-24T08:39:12;44.20;;;18.73;;
64498;SDS011;51087;55.718;21.122;2022-12-24T08:41:37;56.33;;;21.38;;
64498;SDS011;51087;55.718;21.122;2022-12-24T08:44:02;46.28;;;18.27;;
64498;SDS011;51087;55.718;21.122;2022-12-24T08:46:28;46.28;;;18.67;;
64498;SDS011;51087;55.718;21.122;2022-12-24T08:48:53;44.05;;;16.92;;
64498;SDS011;51087;55.718;21.122;2022-12-24T08:51:19;42.03;;;16.13;;
64498;SDS011;51087;55.718;21.122;2022-12-24T08:53:45;38.67;;;15.30;;
64498;SDS011;51087;55.718;21.122;2022-12-24T08:56:11;40.50;;;16.02;;
64498;SDS011;51087;55.718;21.122;2022-12-24T08:58:37;38.45;;;15.90;;
64498;SDS011;51087;55.718;21.122;2022-12-24T09:01:09;37.00;;;13.23;;
64498;SDS011;51087;55.718;21.122;2022-12-24T09:03:36;20.88;;;10.00;;
64498;SDS011;51087;55.718;21.122;2022-12-24T09:06:02;49.33;;;14.52;;
64498;SDS011;51087;55.718;21.122;2022-12-24T09:08:29;44.42;;;14.30;;
64498;SDS011;51087;55.718;21.122;2022-12-24T09:10:55;58.80;;;16.63;;
64498;SDS011;51087;55.718;21.122;2022-12-24T09:13:20;35.65;;;13.18;;
64498;SDS011;51087;55.718;21.122;2022-12-24T09:15:53;35.45;;;13.55;;
64498;SDS011;51087;55.718;21.122;2022-12-24T09:18:19;48.92;;;16.63;;
64498;SDS011;51087;55.718;21.122;2022-12-24T09:20:44;59.65;;;18.73;;
64498;SDS011;51087;55.718;21.122;2022-12-24T09:23:10;57.05;;;19.42;;
64498;SDS011;51087;55.718;21.122;2022-12-24T09:25:39;59.10;;;18.83;;
64498;SDS011;51087;55.718;21.122;2022-12-24T09:28:08;63.47;;;19.75;;
64498;SDS011;51087;55.718;21.122;2022-12-24T09:30:34;55.78;;;18.55;;
64498;SDS011;51087;55.718;21.122;2022-12-24T09:33:00;52.30;;;18.48;;
64498;SDS011;51087;55.718;21.122;2022-12-24T09:35:26;45.78;;;15.98;;
64498;SDS011;51087;55.718;21.122;2022-12-24T09:37:51;40.80;;;15.35;;
64498;SDS011;51087;55.718;21.122;2022-12-24T09:40:37;43.30;;;12.98;;
64498;SDS011;51087;55.718;21.122;2022-12-24T09:43:17;40.63;;;14.25;;
64498;SDS011;51087;55.718;21.122;2022-12-24T09:46:08;38.47;;;11.07;;
64498;SDS011;51087;55.718;21.122;2022-12-24T09:48:38;25.30;;;9.50;;
64498;SDS011;51087;55.718;21.122;2022-12-24T09:51:20;18.60;;;8.10;;
64498;SDS011;51087;55.718;21.122;2022-12-24T09:53:52;19.65;;;8.52;;
64498;SDS011;51087;55.718;21.122;2022-12-24T09:56:38;14.45;;;6.75;;
64498;SDS011;51087;55.718;21.122;2022-12-24T09:59:06;13.15;;;6.15;;
64498;SDS011;51087;55.718;21.122;2022-12-24T10:01:36;13.57;;;6.38;;
64498;SDS011;51087;55.718;21.122;2022-12-24T10:04:03;14.05;;;5.65;;
64498;SDS011;51087;55.718;21.122;2022-12-24T10:09:43;20.00;;;7.40;;
64498;SDS011;51087;55.718;21.122;2022-12-24T10:15:33;18.75;;;8.00;;
64498;SDS011;51087;55.718;21.122;2022-12-24T10:18:14;24.90;;;9.15;;
64498;SDS011;51087;55.718;21.122;2022-12-24T10:23:25;14.88;;;5.97;;
64498;SDS011;51087;55.718;21.122;2022-12-24T10:31:06;11.25;;;4.97;;
64498;SDS011;51087;55.718;21.122;2022-12-24T10:33:43;14.25;;;6.05;;
64498;SDS011;51087;55.718;21.122;2022-12-24T10:36:17;14.02;;;6.82;;
64498;SDS011;51087;55.718;21.122;2022-12-24T10:38:48;19.50;;;7.93;;
64498;SDS011;51087;55.718;21.122;2022-12-24T10:41:13;16.58;;;7.07;;
64498;SDS011;51087;55.718;21.122;2022-12-24T10:43:39;15.88;;;7.65;;
64498;SDS011;51087;55.718;21.122;2022-12-24T10:46:12;17.10;;;7.43;;
64498;SDS011;51087;55.718;21.122;2022-12-24T10:48:40;13.23;;;6.05;;
64498;SDS011;51087;55.718;21.122;2022-12-24T10:51:13;13.32;;;5.93;;
64498;SDS011;51087;55.718;21.122;2022-12-24T10:53:55;12.27;;;6.40;;
64498;SDS011;51087;55.718;21.122;2022-12-24T10:56:25;17.67;;;7.40;;
64498;SDS011;51087;55.718;21.122;2022-12-24T10:58:52;14.80;;;6.97;;
64498;SDS011;51087;55.718;21.122;2022-12-24T11:01:19;18.90;;;8.43;;
64498;SDS011;51087;55.718;21.122;2022-12-24T11:03:46;15.60;;;7.07;;
64498;SDS011;51087;55.718;21.122;2022-12-24T11:06:24;18.75;;;7.85;;
64498;SDS011;51087;55.718;21.122;2022-12-24T11:08:49;18.67;;;8.13;;
64498;SDS011;51087;55.718;21.122;2022-12-24T11:11:18;19.08;;;7.38;;
64498;SDS011;51087;55.718;21.122;2022-12-24T11:19:03;14.98;;;6.85;;
64498;SDS011;51087;55.718;21.122;2022-12-24T11:23:58;17.63;;;7.07;;
64498;SDS011;51087;55.718;21.122;2022-12-24T11:26:28;15.32;;;6.57;;
64498;SDS011;51087;55.718;21.122;2022-12-24T11:31:49;11.40;;;5.38;;
64498;SDS011;51087;55.718;21.122;2022-12-24T11:34:17;16.52;;;5.80;;
64498;SDS011;51087;55.718;21.122;2022-12-24T11:36:55;9.80;;;4.93;;
64498;SDS011;51087;55.718;21.122;2022-12-24T11:39:37;16.08;;;6.90;;
64498;SDS011;51087;55.718;21.122;2022-12-24T11:42:05;14.45;;;6.13;;
64498;SDS011;51087;55.718;21.122;2022-12-24T11:44:31;8.77;;;4.97;;
64498;SDS011;51087;55.718;21.122;2022-12-24T11:46:56;13.73;;;5.78;;
64498;SDS011;51087;55.718;21.122;2022-12-24T11:49:24;18.27;;;6.80;;
64498;SDS011;51087;55.718;21.122;2022-12-24T11:52:11;13.55;;;5.03;;
64498;SDS011;51087;55.718;21.122;2022-12-24T12:00:25;12.25;;;4.40;;
64498;SDS011;51087;55.718;21.122;2022-12-24T12:02:51;13.65;;;4.60;;
64498;SDS011;51087;55.718;21.122;2022-12-24T12:05:21;15.27;;;6.78;;
64498;SDS011;51087;55.718;21.122;2022-12-24T12:07:51;23.13;;;6.97;;
64498;SDS011;51087;55.718;21.122;2022-12-24T12:10:27;19.40;;;5.65;;
64498;SDS011;51087;55.718;21.122;2022-12-24T12:13:01;16.10;;;4.88;;
64498;SDS011;51087;55.718;21.122;2022-12-24T12:15:33;11.13;;;4.60;;
64498;SDS011;51087;55.718;21.122;2022-12-24T12:18:22;13.63;;;4.30;;
64498;SDS011;51087;55.718;21.122;2022-12-24T12:21:27;11.93;;;3.63;;
64498;SDS011;51087;55.718;21.122;2022-12-24T12:23:55;14.18;;;4.88;;
64498;SDS011;51087;55.718;21.122;2022-12-24T12:26:27;12.32;;;5.30;;
64498;SDS011;51087;55.718;21.122;2022-12-24T12:31:50;34.55;;;6.45;;
64498;SDS011;51087;55.718;21.122;2022-12-24T12:37:01;21.42;;;5.88;;
64498;SDS011;51087;55.718;21.122;2022-12-24T12:39:34;12.77;;;4.53;;
64498;SDS011;51087;55.718;21.122;2022-12-24T12:45:28;40.53;;;8.60;;
64498;SDS011;51087;55.718;21.122;2022-12-24T12:47:51;36.80;;;10.18;;
64498;SDS011;51087;55.718;21.122;2022-12-24T12:54:06;20.40;;;7.07;;
64498;SDS011;51087;55.718;21.122;2022-12-24T12:56:40;19.02;;;6.00;;
64498;SDS011;51087;55.718;21.122;2022-12-24T12:59:19;16.75;;;6.60;;
64498;SDS011;51087;55.718;21.122;2022-12-24T13:12:55;10.20;;;5.35;;
64498;SDS011;51087;55.718;21.122;2022-12-24T13:18:20;16.20;;;6.35;;
64498;SDS011;51087;55.718;21.122;2022-12-24T13:21:04;25.52;;;8.73;;
64498;SDS011;51087;55.718;21.122;2022-12-24T13:23:42;16.48;;;7.18;;
64498;SDS011;51087;55.718;21.122;2022-12-24T13:26:11;20.17;;;6.85;;
64498;SDS011;51087;55.718;21.122;2022-12-24T13:28:38;19.40;;;7.25;;
64498;SDS011;51087;55.718;21.122;2022-12-24T13:36:07;18.27;;;7.18;;
64498;SDS011;51087;55.718;21.122;2022-12-24T13:38:47;16.50;;;7.38;;
64498;SDS011;51087;55.718;21.122;2022-12-24T13:49:24;25.52;;;9.35;;
64498;SDS011;51087;55.718;21.122;2022-12-24T13:52:05;24.52;;;10.38;;
64498;SDS011;51087;55.718;21.122;2022-12-24T13:54:34;27.38;;;11.70;;
64498;SDS011;51087;55.718;21.122;2022-12-24T14:07:59;33.42;;;13.80;;
64498;SDS011;51087;55.718;21.122;2022-12-24T14:10:31;37.47;;;14.85;;
64498;SDS011;51087;55.718;21.122;2022-12-24T14:13:02;39.13;;;15.55;;
64498;SDS011;51087;55.718;21.122;2022-12-24T14:15:45;38.13;;;15.45;;
64498;SDS011;51087;55.718;21.122;2022-12-24T14:18:26;46.28;;;16.95;;
64498;SDS011;51087;55.718;21.122;2022-12-24T14:20:53;45.45;;;16.77;;
64498;SDS011;51087;55.718;21.122;2022-12-24T14:26:11;41.75;;;17.52;;
64498;SDS011;51087;55.718;21.122;2022-12-24T14:28:42;47.60;;;16.58;;
64498;SDS011;51087;55.718;21.122;2022-12-24T14:31:14;44.35;;;16.02;;
64498;SDS011;51087;55.718;21.122;2022-12-24T14:33:42;37.78;;;15.63;;
64498;SDS011;51087;55.718;21.122;2022-12-24T14:36:08;42.40;;;15.60;;
64498;SDS011;51087;55.718;21.122;2022-12-24T14:38:38;48.03;;;15.13;;
64498;SDS011;51087;55.718;21.122;2022-12-24T14:41:23;38.75;;;15.80;;
64498;SDS011;51087;55.718;21.122;2022-12-24T14:46:59;36.42;;;13.30;;
64498;SDS011;51087;55.718;21.122;2022-12-24T14:49:51;31.98;;;13.00;;
64498;SDS011;51087;55.718;21.122;2022-12-24T14:55:26;33.10;;;12.98;;
64498;SDS011;51087;55.718;21.122;2022-12-24T15:00:48;29.02;;;11.73;;
64498;SDS011;51087;55.718;21.122;2022-12-24T15:03:15;27.98;;;11.82;;
64498;SDS011;51087;55.718;21.122;2022-12-24T15:05:42;89.60;;;33.53;;
64498;SDS011;51087;55.718;21.122;2022-12-24T15:08:19;38.42;;;14.63;;
64498;SDS011;51087;55.718;21.122;2022-12-24T15:11:01;34.67;;;14.65;;
64498;SDS011;51087;55.718;21.122;2022-12-24T15:13:33;29.20;;;13.55;;
64498;SDS011;51087;55.718;21.122;2022-12-24T15:15:59;28.73;;;11.52;;
64498;SDS011;51087;55.718;21.122;2022-12-24T15:18:27;22.95;;;10.73;;
64498;SDS011;51087;55.718;21.122;2022-12-24T15:20:56;26.58;;;11.13;;
64498;SDS011;51087;55.718;21.122;2022-12-24T15:23:36;28.33;;;12.25;;
64498;SDS011;51087;55.718;21.122;2022-12-24T15:26:20;28.13;;;11.35;;
64498;SDS011;51087;55.718;21.122;2022-12-24T15:28:50;33.38;;;11.70;;
64498;SDS011;51087;55.718;21.122;2022-12-24T15:31:20;27.85;;;11.52;;
64498;SDS011;51087;55.718;21.122;2022-12-24T15:33:48;31.45;;;12.50;;
64498;SDS011;51087;55.718;21.122;2022-12-24T15:36:29;33.78;;;12.95;;
64498;SDS011;51087;55.718;21.122;2022-12-24T15:38:59;33.63;;;13.93;;
64498;SDS011;51087;55.718;21.122;2022-12-24T15:41:46;37.65;;;17.08;;
64498;SDS011;51087;55.718;21.122;2022-12-24T15:44:33;51.05;;;21.33;;
64498;SDS011;51087;55.718;21.122;2022-12-24T15:47:01;55.75;;;22.10;;
64498;SDS011;51087;55.718;21.122;2022-12-24T15:49:28;52.15;;;19.05;;
64498;SDS011;51087;55.718;21.122;2022-12-24T15:52:07;34.53;;;15.82;;
64498;SDS011;51087;55.718;21.122;2022-12-24T15:54:35;51.70;;;18.02;;
64498;SDS011;51087;55.718;21.122;2022-12-24T15:57:12;46.55;;;18.42;;
64498;SDS011;51087;55.718;21.122;2022-12-24T15:59:39;49.33;;;21.10;;
64498;SDS011;51087;55.718;21.122;2022-12-24T16:04:49;73.43;;;28.67;;
64498;SDS011;51087;55.718;21.122;2022-12-24T16:07:24;80.82;;;29.75;;
64498;SDS011;51087;55.718;21.122;2022-12-24T16:10:22;92.38;;;32.88;;
64498;SDS011;51087;55.718;21.122;2022-12-24T16:12:48;86.55;;;31.80;;
64498;SDS011;51087;55.718;21.122;2022-12-24T16:15:14;93.75;;;32.65;;
64498;SDS011;51087;55.718;21.122;2022-12-24T16:17:40;82.50;;;30.13;;
64498;SDS011;51087;55.718;21.122;2022-12-24T16:20:06;76.82;;;27.35;;
64498;SDS011;51087;55.718;21.122;2022-12-24T16:22:44;99.10;;;32.45;;
64498;SDS011;51087;55.718;21.122;2022-12-24T16:25:19;88.50;;;33.67;;
64498;SDS011;51087;55.718;21.122;2022-12-24T16:27:47;78.50;;;29.95;;
64498;SDS011;51087;55.718;21.122;2022-12-24T16:30:13;86.55;;;30.95;;
64498;SDS011;51087;55.718;21.122;2022-12-24T16:32:39;81.43;;;31.60;;
64498;SDS011;51087;55.718;21.122;2022-12-24T16:35:06;81.35;;;30.23;;
64498;SDS011;51087;55.718;21.122;2022-12-24T16:37:43;65.95;;;28.60;;
64498;SDS011;51087;55.718;21.122;2022-12-24T16:40:12;80.43;;;29.85;;